sensor_id;sensor_type;location;lat;lon;timestamp;temperature;humidity
18593;DHT22;9426;54.118;17.948;2022-11-03T00:01:58;7.60;99.90
18593;DHT22;9426;54.118;17.948;2022-11-03T00:07:21;7.70;99.90
18593;DHT22;9426;54.118;17.948;2022-11-03T00:12:46;7.80;99.90
18593;DHT22;9426;54.118;17.948;2022-11-03T00:18:10;7.80;99.90
18593;DHT22;9426;54.118;17.948;2022-11-03T00:23:35;7.80;99.90
18593;DHT22;9426;54.118;17.948;2022-11-03T00:29:01;7.70;99.90
18593;DHT22;9426;54.118;17.948;2022-11-03T00:34:28;7.70;99.90
18593;DHT22;9426;54.118;17.948;2022-11-03T00:39:51;7.70;99.90
18593;DHT22;9426;54.118;17.948;2022-11-03T00:45:16;7.80;99.90
18593;DHT22;9426;54.118;17.948;2022-11-03T00:50:39;7.70;99.90
18593;DHT22;9426;54.118;17.948;2022-11-03T00:56:05;7.70;99.90
18593;DHT22;9426;54.118;17.948;2022-11-03T01:01:32;7.60;99.90
18593;DHT22;9426;54.118;17.948;2022-11-03T01:06:59;7.60;99.90
18593;DHT22;9426;54.118;17.948;2022-11-03T01:12:22;7.70;99.90
18593;DHT22;9426;54.118;17.948;2022-11-03T01:17:47;7.70;99.90
18593;DHT22;9426;54.118;17.948;2022-11-03T01:23:10;7.70;99.90
18593;DHT22;9426;54.118;17.948;2022-11-03T01:28:33;7.60;99.90
18593;DHT22;9426;54.118;17.948;2022-11-03T01:33:58;7.40;99.90
18593;DHT22;9426;54.118;17.948;2022-11-03T01:39:21;7.40;99.90
18593;DHT22;9426;54.118;17.948;2022-11-03T01:44:47;7.30;99.90
18593;DHT22;9426;54.118;17.948;2022-11-03T01:50:14;7.00;99.90
18593;DHT22;9426;54.118;17.948;2022-11-03T01:55:38;6.80;99.90
18593;DHT22;9426;54.118;17.948;2022-11-03T02:01:02;6.70;99.90
18593;DHT22;9426;54.118;17.948;2022-11-03T02:06:29;6.50;99.90
18593;DHT22;9426;54.118;17.948;2022-11-03T02:11:53;6.30;99.90
18593;DHT22;9426;54.118;17.948;2022-11-03T02:17:28;6.20;99.90
18593;DHT22;9426;54.118;17.948;2022-11-03T02:23:09;6.00;99.90
18593;DHT22;9426;54.118;17.948;2022-11-03T02:28:37;5.80;99.90
18593;DHT22;9426;54.118;17.948;2022-11-03T02:34:05;5.80;99.90
18593;DHT22;9426;54.118;17.948;2022-11-03T02:39:33;5.70;99.90
18593;DHT22;9426;54.118;17.948;2022-11-03T02:45:04;5.70;99.90
18593;DHT22;9426;54.118;17.948;2022-11-03T02:50:31;5.60;99.90
18593;DHT22;9426;54.118;17.948;2022-11-03T02:55:59;5.60;99.90
18593;DHT22;9426;54.118;17.948;2022-11-03T03:01:29;5.50;99.90
18593;DHT22;9426;54.118;17.948;2022-11-03T03:06:59;5.50;99.90
18593;DHT22;9426;54.118;17.948;2022-11-03T03:12:25;5.50;99.90
18593;DHT22;9426;54.118;17.948;2022-11-03T03:17:52;5.50;99.90
18593;DHT22;9426;54.118;17.948;2022-11-03T03:23:19;5.40;99.90
18593;DHT22;9426;54.118;17.948;2022-11-03T03:28:47;5.30;99.90
18593;DHT22;9426;54.118;17.948;2022-11-03T03:34:15;5.30;99.90
18593;DHT22;9426;54.118;17.948;2022-11-03T03:39:56;5.30;99.90
18593;DHT22;9426;54.118;17.948;2022-11-03T03:45:20;5.20;99.90
18593;DHT22;9426;54.118;17.948;2022-11-03T03:50:47;5.10;99.90
18593;DHT22;9426;54.118;17.948;2022-11-03T03:56:11;5.10;99.90
18593;DHT22;9426;54.118;17.948;2022-11-03T04:01:34;5.00;99.90
18593;DHT22;9426;54.118;17.948;2022-11-03T04:06:58;5.00;99.90
18593;DHT22;9426;54.118;17.948;2022-11-03T04:12:40;4.90;99.90
18593;DHT22;9426;54.118;17.948;2022-11-03T04:18:21;4.80;99.90
18593;DHT22;9426;54.118;17.948;2022-11-03T04:24:04;4.60;99.90
18593;DHT22;9426;54.118;17.948;2022-11-03T04:29:28;4.60;99.90
18593;DHT22;9426;54.118;17.948;2022-11-03T04:34:51;4.50;99.90
18593;DHT22;9426;54.118;17.948;2022-11-03T04:40:17;4.40;99.90
18593;DHT22;9426;54.118;17.948;2022-11-03T04:45:42;4.50;99.90
18593;DHT22;9426;54.118;17.948;2022-11-03T04:51:13;4.40;99.90
18593;DHT22;9426;54.118;17.948;2022-11-03T04:56:39;4.40;99.90
18593;DHT22;9426;54.118;17.948;2022-11-03T05:02:03;4.40;99.90
18593;DHT22;9426;54.118;17.948;2022-11-03T05:07:33;4.60;99.90
18593;DHT22;9426;54.118;17.948;2022-11-03T05:12:59;4.40;99.90
18593;DHT22;9426;54.118;17.948;2022-11-03T05:18:28;4.40;99.90
18593;DHT22;9426;54.118;17.948;2022-11-03T05:23:54;4.30;99.90
18593;DHT22;9426;54.118;17.948;2022-11-03T05:29:23;4.10;99.90
18593;DHT22;9426;54.118;17.948;2022-11-03T05:34:49;3.90;99.90
18593;DHT22;9426;54.118;17.948;2022-11-03T05:40:18;4.00;99.90
18593;DHT22;9426;54.118;17.948;2022-11-03T05:45:44;4.10;99.90
18593;DHT22;9426;54.118;17.948;2022-11-03T05:51:14;4.30;99.90
18593;DHT22;9426;54.118;17.948;2022-11-03T05:56:38;4.40;99.90
18593;DHT22;9426;54.118;17.948;2022-11-03T06:02:13;4.50;99.90
18593;DHT22;9426;54.118;17.948;2022-11-03T06:07:42;4.60;99.90
18593;DHT22;9426;54.118;17.948;2022-11-03T06:13:10;4.70;99.90
18593;DHT22;9426;54.118;17.948;2022-11-03T06:18:37;4.70;99.90
18593;DHT22;9426;54.118;17.948;2022-11-03T06:24:00;4.60;99.90
18593;DHT22;9426;54.118;17.948;2022-11-03T06:29:24;4.60;99.90
18593;DHT22;9426;54.118;17.948;2022-11-03T06:34:51;4.60;99.90
18593;DHT22;9426;54.118;17.948;2022-11-03T06:40:39;4.60;99.90
18593;DHT22;9426;54.118;17.948;2022-11-03T06:46:11;4.70;99.90
18593;DHT22;9426;54.118;17.948;2022-11-03T06:51:36;4.80;99.90
18593;DHT22;9426;54.118;17.948;2022-11-03T06:56:59;4.90;99.90
18593;DHT22;9426;54.118;17.948;2022-11-03T07:02:43;4.90;99.90
18593;DHT22;9426;54.118;17.948;2022-11-03T07:08:20;5.00;99.90
18593;DHT22;9426;54.118;17.948;2022-11-03T07:13:45;5.10;99.90
18593;DHT22;9426;54.118;17.948;2022-11-03T07:19:13;5.10;99.90
18593;DHT22;9426;54.118;17.948;2022-11-03T07:24:43;5.20;99.90
18593;DHT22;9426;54.118;17.948;2022-11-03T07:30:15;5.20;99.90
18593;DHT22;9426;54.118;17.948;2022-11-03T07:35:41;5.30;99.90
18593;DHT22;9426;54.118;17.948;2022-11-03T07:41:28;5.40;99.90
18593;DHT22;9426;54.118;17.948;2022-11-03T07:46:54;5.50;99.90
18593;DHT22;9426;54.118;17.948;2022-11-03T07:52:20;5.70;99.90
18593;DHT22;9426;54.118;17.948;2022-11-03T07:57:45;5.70;99.90
18593;DHT22;9426;54.118;17.948;2022-11-03T08:03:21;5.80;99.90
18593;DHT22;9426;54.118;17.948;2022-11-03T08:08:47;5.90;99.90
18593;DHT22;9426;54.118;17.948;2022-11-03T08:14:12;6.00;99.90
18593;DHT22;9426;54.118;17.948;2022-11-03T08:19:36;6.20;99.90
18593;DHT22;9426;54.118;17.948;2022-11-03T08:24:59;6.30;99.90
18593;DHT22;9426;54.118;17.948;2022-11-03T08:30:24;6.50;99.90
18593;DHT22;9426;54.118;17.948;2022-11-03T08:35:47;6.70;99.90
18593;DHT22;9426;54.118;17.948;2022-11-03T08:41:11;7.00;99.90
18593;DHT22;9426;54.118;17.948;2022-11-03T08:46:35;7.10;99.90
18593;DHT22;9426;54.118;17.948;2022-11-03T08:51:58;7.30;99.90
18593;DHT22;9426;54.118;17.948;2022-11-03T08:57:21;7.50;99.90
18593;DHT22;9426;54.118;17.948;2022-11-03T09:02:46;7.80;99.90
18593;DHT22;9426;54.118;17.948;2022-11-03T09:08:10;8.00;99.90
18593;DHT22;9426;54.118;17.948;2022-11-03T09:13:53;8.00;99.90
18593;DHT22;9426;54.118;17.948;2022-11-03T09:19:20;8.10;99.90
18593;DHT22;9426;54.118;17.948;2022-11-03T09:24:43;8.30;99.90
18593;DHT22;9426;54.118;17.948;2022-11-03T09:30:07;8.50;99.90
18593;DHT22;9426;54.118;17.948;2022-11-03T09:35:36;8.90;99.90
18593;DHT22;9426;54.118;17.948;2022-11-03T09:40:59;9.10;99.90
18593;DHT22;9426;54.118;17.948;2022-11-03T09:46:26;9.30;99.90
18593;DHT22;9426;54.118;17.948;2022-11-03T09:51:52;9.50;99.90
18593;DHT22;9426;54.118;17.948;2022-11-03T09:57:16;9.70;99.90
18593;DHT22;9426;54.118;17.948;2022-11-03T10:02:39;9.90;99.90
18593;DHT22;9426;54.118;17.948;2022-11-03T10:08:07;10.00;99.90
18593;DHT22;9426;54.118;17.948;2022-11-03T10:13:36;10.10;99.90
18593;DHT22;9426;54.118;17.948;2022-11-03T10:19:00;10.30;99.90
18593;DHT22;9426;54.118;17.948;2022-11-03T10:24:25;11.40;99.90
18593;DHT22;9426;54.118;17.948;2022-11-03T10:30:04;11.90;99.90
18593;DHT22;9426;54.118;17.948;2022-11-03T10:35:33;13.40;99.90
18593;DHT22;9426;54.118;17.948;2022-11-03T10:41:10;14.50;99.90
18593;DHT22;9426;54.118;17.948;2022-11-03T10:46:33;14.20;99.90
18593;DHT22;9426;54.118;17.948;2022-11-03T10:52:15;14.00;99.90
18593;DHT22;9426;54.118;17.948;2022-11-03T10:57:41;13.60;99.90
18593;DHT22;9426;54.118;17.948;2022-11-03T11:03:05;13.10;99.90
18593;DHT22;9426;54.118;17.948;2022-11-03T11:08:28;13.30;99.90
18593;DHT22;9426;54.118;17.948;2022-11-03T11:14:33;13.30;99.90
18593;DHT22;9426;54.118;17.948;2022-11-03T11:20:28;13.90;99.90
18593;DHT22;9426;54.118;17.948;2022-11-03T11:26:14;14.00;99.90
18593;DHT22;9426;54.118;17.948;2022-11-03T11:31:40;13.10;99.90
18593;DHT22;9426;54.118;17.948;2022-11-03T11:37:31;12.40;99.90
18593;DHT22;9426;54.118;17.948;2022-11-03T11:43:25;12.40;99.90
18593;DHT22;9426;54.118;17.948;2022-11-03T11:49:01;12.40;99.90
18593;DHT22;9426;54.118;17.948;2022-11-03T11:54:36;12.00;99.90
18593;DHT22;9426;54.118;17.948;2022-11-03T12:00:03;11.60;99.90
18593;DHT22;9426;54.118;17.948;2022-11-03T12:05:34;12.10;99.90
18593;DHT22;9426;54.118;17.948;2022-11-03T12:10:59;13.10;99.90
18593;DHT22;9426;54.118;17.948;2022-11-03T12:16:27;14.40;99.90
18593;DHT22;9426;54.118;17.948;2022-11-03T12:21:52;15.10;99.90
18593;DHT22;9426;54.118;17.948;2022-11-03T12:33:00;15.20;99.90
18593;DHT22;9426;54.118;17.948;2022-11-03T12:38:24;15.90;99.90
18593;DHT22;9426;54.118;17.948;2022-11-03T12:43:49;16.60;99.90
18593;DHT22;9426;54.118;17.948;2022-11-03T12:49:12;17.40;99.90
18593;DHT22;9426;54.118;17.948;2022-11-03T12:54:37;18.00;99.90
18593;DHT22;9426;54.118;17.948;2022-11-03T13:00:01;18.30;99.90
18593;DHT22;9426;54.118;17.948;2022-11-03T13:05:25;18.20;99.90
18593;DHT22;9426;54.118;17.948;2022-11-03T13:10:50;18.10;99.90
18593;DHT22;9426;54.118;17.948;2022-11-03T13:16:13;17.50;99.90
18593;DHT22;9426;54.118;17.948;2022-11-03T13:21:36;17.40;99.90
18593;DHT22;9426;54.118;17.948;2022-11-03T13:27:01;16.70;99.90
18593;DHT22;9426;54.118;17.948;2022-11-03T13:32:25;15.20;99.90
18593;DHT22;9426;54.118;17.948;2022-11-03T13:37:48;13.90;99.90
18593;DHT22;9426;54.118;17.948;2022-11-03T13:43:17;13.00;99.90
18593;DHT22;9426;54.118;17.948;2022-11-03T13:48:40;12.50;99.90
18593;DHT22;9426;54.118;17.948;2022-11-03T13:54:24;12.00;99.90
18593;DHT22;9426;54.118;17.948;2022-11-03T14:00:10;11.60;99.90
18593;DHT22;9426;54.118;17.948;2022-11-03T14:05:35;11.50;99.90
18593;DHT22;9426;54.118;17.948;2022-11-03T14:10:59;11.30;99.90
18593;DHT22;9426;54.118;17.948;2022-11-03T14:16:44;10.90;99.90
18593;DHT22;9426;54.118;17.948;2022-11-03T14:22:08;10.50;99.90
18593;DHT22;9426;54.118;17.948;2022-11-03T14:27:31;10.20;99.90
18593;DHT22;9426;54.118;17.948;2022-11-03T14:32:56;9.90;99.90
18593;DHT22;9426;54.118;17.948;2022-11-03T14:38:20;9.50;99.90
18593;DHT22;9426;54.118;17.948;2022-11-03T14:43:43;9.20;99.90
18593;DHT22;9426;54.118;17.948;2022-11-03T14:49:09;8.80;99.90
18593;DHT22;9426;54.118;17.948;2022-11-03T14:54:33;8.60;99.90
18593;DHT22;9426;54.118;17.948;2022-11-03T14:59:58;8.30;99.90
18593;DHT22;9426;54.118;17.948;2022-11-03T15:05:22;8.10;99.90
18593;DHT22;9426;54.118;17.948;2022-11-03T15:10:59;7.90;99.90
18593;DHT22;9426;54.118;17.948;2022-11-03T15:16:23;7.60;99.90
18593;DHT22;9426;54.118;17.948;2022-11-03T15:21:48;7.40;99.90
18593;DHT22;9426;54.118;17.948;2022-11-03T15:27:11;7.20;99.90
18593;DHT22;9426;54.118;17.948;2022-11-03T15:32:35;7.00;99.90
18593;DHT22;9426;54.118;17.948;2022-11-03T15:38:00;6.90;99.90
18593;DHT22;9426;54.118;17.948;2022-11-03T15:43:24;6.70;99.90
18593;DHT22;9426;54.118;17.948;2022-11-03T15:48:47;6.70;99.90
18593;DHT22;9426;54.118;17.948;2022-11-03T15:54:12;6.50;99.90
18593;DHT22;9426;54.118;17.948;2022-11-03T15:59:35;6.40;99.90
18593;DHT22;9426;54.118;17.948;2022-11-03T16:04:59;6.20;99.90
18593;DHT22;9426;54.118;17.948;2022-11-03T16:10:24;6.10;99.90
18593;DHT22;9426;54.118;17.948;2022-11-03T16:15:49;6.00;99.90
18593;DHT22;9426;54.118;17.948;2022-11-03T16:21:16;6.00;99.90
18593;DHT22;9426;54.118;17.948;2022-11-03T16:26:42;5.90;99.90
18593;DHT22;9426;54.118;17.948;2022-11-03T16:32:05;5.90;99.90
18593;DHT22;9426;54.118;17.948;2022-11-03T16:37:29;5.80;99.90
18593;DHT22;9426;54.118;17.948;2022-11-03T16:42:54;5.70;99.90
18593;DHT22;9426;54.118;17.948;2022-11-03T16:48:17;5.70;99.90
18593;DHT22;9426;54.118;17.948;2022-11-03T16:53:41;5.60;99.90
18593;DHT22;9426;54.118;17.948;2022-11-03T16:59:06;5.60;99.90
18593;DHT22;9426;54.118;17.948;2022-11-03T17:04:29;5.50;99.90
18593;DHT22;9426;54.118;17.948;2022-11-03T17:09:52;5.50;99.90
18593;DHT22;9426;54.118;17.948;2022-11-03T17:15:17;5.50;99.90
18593;DHT22;9426;54.118;17.948;2022-11-03T17:20:40;5.40;99.90
18593;DHT22;9426;54.118;17.948;2022-11-03T17:26:06;5.30;99.90
18593;DHT22;9426;54.118;17.948;2022-11-03T17:31:32;5.20;99.90
18593;DHT22;9426;54.118;17.948;2022-11-03T17:36:57;5.20;99.90
18593;DHT22;9426;54.118;17.948;2022-11-03T17:42:22;5.20;99.90
18593;DHT22;9426;54.118;17.948;2022-11-03T17:47:49;5.10;99.90
18593;DHT22;9426;54.118;17.948;2022-11-03T17:53:18;5.10;99.90
18593;DHT22;9426;54.118;17.948;2022-11-03T17:58:43;5.10;99.90
18593;DHT22;9426;54.118;17.948;2022-11-03T18:04:11;5.20;99.90
18593;DHT22;9426;54.118;17.948;2022-11-03T18:09:39;5.30;99.90
18593;DHT22;9426;54.118;17.948;2022-11-03T18:15:04;5.30;99.90
18593;DHT22;9426;54.118;17.948;2022-11-03T18:20:30;5.30;99.90
18593;DHT22;9426;54.118;17.948;2022-11-03T18:25:53;5.40;99.90
18593;DHT22;9426;54.118;17.948;2022-11-03T18:31:19;5.40;99.90
18593;DHT22;9426;54.118;17.948;2022-11-03T18:36:45;5.40;99.90
18593;DHT22;9426;54.118;17.948;2022-11-03T18:42:12;5.30;99.90
18593;DHT22;9426;54.118;17.948;2022-11-03T18:47:35;5.20;99.90
18593;DHT22;9426;54.118;17.948;2022-11-03T18:53:00;5.20;99.90
18593;DHT22;9426;54.118;17.948;2022-11-03T18:58:24;5.20;99.90
18593;DHT22;9426;54.118;17.948;2022-11-03T19:03:48;5.20;99.90
18593;DHT22;9426;54.118;17.948;2022-11-03T19:09:14;5.10;99.90
18593;DHT22;9426;54.118;17.948;2022-11-03T19:14:41;5.10;99.90
18593;DHT22;9426;54.118;17.948;2022-11-03T19:20:11;5.00;99.90
18593;DHT22;9426;54.118;17.948;2022-11-03T19:25:38;4.90;99.90
18593;DHT22;9426;54.118;17.948;2022-11-03T19:31:04;4.90;99.90
18593;DHT22;9426;54.118;17.948;2022-11-03T19:36:28;4.90;99.90
18593;DHT22;9426;54.118;17.948;2022-11-03T19:41:54;4.80;99.90
18593;DHT22;9426;54.118;17.948;2022-11-03T19:47:37;4.70;99.90
18593;DHT22;9426;54.118;17.948;2022-11-03T19:53:05;4.70;99.90
18593;DHT22;9426;54.118;17.948;2022-11-03T19:58:30;4.70;99.90
18593;DHT22;9426;54.118;17.948;2022-11-03T20:03:54;4.70;99.90
18593;DHT22;9426;54.118;17.948;2022-11-03T20:09:17;4.60;99.90
18593;DHT22;9426;54.118;17.948;2022-11-03T20:14:42;4.60;99.90
18593;DHT22;9426;54.118;17.948;2022-11-03T20:20:07;4.60;99.90
18593;DHT22;9426;54.118;17.948;2022-11-03T20:25:32;4.60;99.90
18593;DHT22;9426;54.118;17.948;2022-11-03T20:30:58;4.60;99.90
18593;DHT22;9426;54.118;17.948;2022-11-03T20:36:22;4.70;99.90
18593;DHT22;9426;54.118;17.948;2022-11-03T20:41:48;4.70;99.90
18593;DHT22;9426;54.118;17.948;2022-11-03T20:47:14;4.70;99.90
18593;DHT22;9426;54.118;17.948;2022-11-03T20:52:39;4.80;99.90
18593;DHT22;9426;54.118;17.948;2022-11-03T20:58:04;4.90;99.90
18593;DHT22;9426;54.118;17.948;2022-11-03T21:03:29;4.90;99.90
18593;DHT22;9426;54.118;17.948;2022-11-03T21:09:15;4.90;99.90
18593;DHT22;9426;54.118;17.948;2022-11-03T21:14:39;4.90;99.90
18593;DHT22;9426;54.118;17.948;2022-11-03T21:20:26;4.90;99.90
18593;DHT22;9426;54.118;17.948;2022-11-03T21:25:49;4.90;99.90
18593;DHT22;9426;54.118;17.948;2022-11-03T21:31:13;4.90;99.90
18593;DHT22;9426;54.118;17.948;2022-11-03T21:36:37;5.00;99.90
18593;DHT22;9426;54.118;17.948;2022-11-03T21:42:01;5.00;99.90
18593;DHT22;9426;54.118;17.948;2022-11-03T21:47:41;5.00;99.90
18593;DHT22;9426;54.118;17.948;2022-11-03T21:53:29;5.00;99.90
18593;DHT22;9426;54.118;17.948;2022-11-03T21:58:52;5.00;99.90
18593;DHT22;9426;54.118;17.948;2022-11-03T22:04:15;4.90;99.90
18593;DHT22;9426;54.118;17.948;2022-11-03T22:09:40;4.90;99.90
18593;DHT22;9426;54.118;17.948;2022-11-03T22:15:04;4.90;99.90
18593;DHT22;9426;54.118;17.948;2022-11-03T22:21:00;4.90;99.90
18593;DHT22;9426;54.118;17.948;2022-11-03T22:26:41;4.90;99.90
18593;DHT22;9426;54.118;17.948;2022-11-03T22:32:20;4.90;99.90
18593;DHT22;9426;54.118;17.948;2022-11-03T22:37:43;5.00;99.90
18593;DHT22;9426;54.118;17.948;2022-11-03T22:43:09;5.00;99.90
18593;DHT22;9426;54.118;17.948;2022-11-03T22:48:49;5.00;99.90
18593;DHT22;9426;54.118;17.948;2022-11-03T22:54:13;4.90;99.90
18593;DHT22;9426;54.118;17.948;2022-11-03T22:59:37;4.90;99.90
18593;DHT22;9426;54.118;17.948;2022-11-03T23:05:04;4.80;99.90
18593;DHT22;9426;54.118;17.948;2022-11-03T23:10:28;4.80;99.90
18593;DHT22;9426;54.118;17.948;2022-11-03T23:15:53;4.80;99.90
18593;DHT22;9426;54.118;17.948;2022-11-03T23:21:17;4.70;99.90
18593;DHT22;9426;54.118;17.948;2022-11-03T23:26:40;5.60;99.90
18593;DHT22;9426;54.118;17.948;2022-11-03T23:32:05;4.70;99.90
18593;DHT22;9426;54.118;17.948;2022-11-03T23:37:28;4.80;99.90
18593;DHT22;9426;54.118;17.948;2022-11-03T23:42:52;4.80;99.90
18593;DHT22;9426;54.118;17.948;2022-11-03T23:48:17;4.90;99.90
18593;DHT22;9426;54.118;17.948;2022-11-03T23:53:59;4.90;99.90
18593;DHT22;9426;54.118;17.948;2022-11-03T23:59:23;4.90;99.90
